createdAt,value
2019-01-20T00:01:11.480Z,20.58
2019-01-20T00:03:39.927Z,20.56
2019-01-20T00:06:08.383Z,20.54
2019-01-20T00:08:36.752Z,20.53
2019-01-20T00:11:05.680Z,20.50
2019-01-20T00:13:34.120Z,20.49
2019-01-20T00:16:02.741Z,20.47
2019-01-20T00:18:31.353Z,20.45
2019-01-20T00:20:59.736Z,20.44
2019-01-20T00:23:28.179Z,20.42
2019-01-20T00:25:56.557Z,20.41
2019-01-20T00:28:24.927Z,20.39
2019-01-20T00:30:53.315Z,20.37
2019-01-20T00:33:21.682Z,20.34
2019-01-20T00:35:50.141Z,20.33
2019-01-20T00:38:18.514Z,20.31
2019-01-20T00:40:46.898Z,20.30
2019-01-20T00:43:15.272Z,20.26
2019-01-20T00:45:43.661Z,20.26
2019-01-20T00:48:12.200Z,20.23
2019-01-20T00:50:40.580Z,20.22
2019-01-20T00:53:08.956Z,20.20
2019-01-20T00:55:37.318Z,20.17
2019-01-20T00:58:05.775Z,20.15
2019-01-20T01:00:34.504Z,20.14
2019-01-20T01:03:02.945Z,20.12
2019-01-20T01:05:31.756Z,20.08
2019-01-20T01:08:00.387Z,20.07
2019-01-20T01:10:28.927Z,20.04
2019-01-20T01:12:57.856Z,20.01
2019-01-20T01:15:26.229Z,20.00
2019-01-20T01:17:54.609Z,19.99
2019-01-20T01:20:22.984Z,19.96
2019-01-20T01:22:51.372Z,19.96
2019-01-20T01:25:19.741Z,19.93
2019-01-20T01:27:48.196Z,19.92
2019-01-20T01:30:19.448Z,19.90
2019-01-20T01:32:47.907Z,19.89
2019-01-20T01:35:16.340Z,19.88
2019-01-20T01:37:44.730Z,19.86
2019-01-20T01:40:15.244Z,19.83
2019-01-20T01:42:43.703Z,19.82
2019-01-20T01:45:14.912Z,19.81
2019-01-20T01:47:43.369Z,19.78
2019-01-20T01:50:12.784Z,19.75
2019-01-20T01:52:41.302Z,19.74
2019-01-20T01:55:10.915Z,19.73
2019-01-20T01:57:39.299Z,19.70
2019-01-20T02:00:14.176Z,19.69
2019-01-20T02:02:42.629Z,19.68
2019-01-20T02:05:11.073Z,19.65
2019-01-20T02:07:39.461Z,19.63
2019-01-20T02:10:11.212Z,19.63
2019-01-20T02:12:39.601Z,19.61
2019-01-20T02:15:10.512Z,19.59
2019-01-20T02:17:38.968Z,19.57
2019-01-20T02:20:10.469Z,19.56
2019-01-20T02:22:38.996Z,19.53
2019-01-20T02:25:07.496Z,19.52
2019-01-20T02:27:35.924Z,19.49
2019-01-20T02:30:07.346Z,19.48
2019-01-20T02:32:35.876Z,19.47
2019-01-20T02:35:05.575Z,19.44
2019-01-20T02:37:33.944Z,19.41
2019-01-20T02:40:02.480Z,19.41
2019-01-20T02:42:31.971Z,19.40
2019-01-20T02:45:00.470Z,19.39
2019-01-20T02:47:28.841Z,19.38
2019-01-20T02:49:57.227Z,19.35
2019-01-20T02:52:25.602Z,19.34
2019-01-20T02:54:53.983Z,19.35
2019-01-20T02:57:22.358Z,19.33
2019-01-20T02:59:50.745Z,19.33
2019-01-20T03:02:19.120Z,19.31
2019-01-20T03:04:47.493Z,19.30
2019-01-20T03:07:15.864Z,19.27
2019-01-20T03:09:44.248Z,19.28
2019-01-20T03:12:12.622Z,19.26
2019-01-20T03:14:40.997Z,19.25
2019-01-20T03:17:09.378Z,19.25
2019-01-20T03:19:37.743Z,19.26
2019-01-20T03:22:06.494Z,19.25
2019-01-20T03:24:34.859Z,19.25
2019-01-20T03:27:03.234Z,19.24
2019-01-20T03:29:31.605Z,19.22
2019-01-20T03:32:00.001Z,19.22
2019-01-20T03:34:28.352Z,19.21
2019-01-20T03:36:56.733Z,19.21
2019-01-20T03:39:25.104Z,19.21
2019-01-20T03:41:53.485Z,19.23
2019-01-20T03:44:21.859Z,19.21
2019-01-20T03:46:50.235Z,19.20
2019-01-20T03:49:18.611Z,19.21
2019-01-20T03:51:46.990Z,19.21
2019-01-20T03:54:15.528Z,19.20
2019-01-20T03:56:43.909Z,19.21
2019-01-20T03:59:12.282Z,19.21
2019-01-20T04:01:40.656Z,19.21
2019-01-20T04:04:09.081Z,19.22
2019-01-20T04:06:37.407Z,19.24
2019-01-20T04:09:07.290Z,19.25
2019-01-20T04:11:35.839Z,19.25
2019-01-20T04:14:04.441Z,19.23
2019-01-20T04:16:33.046Z,19.21
2019-01-20T04:19:01.419Z,19.19
2019-01-20T04:21:29.806Z,19.19
2019-01-20T04:23:58.177Z,19.20
2019-01-20T04:26:26.566Z,19.20
2019-01-20T04:28:54.931Z,19.23
2019-01-20T04:31:23.301Z,19.22
2019-01-20T04:33:51.696Z,19.23
2019-01-20T04:36:20.059Z,19.24
2019-01-20T04:38:48.434Z,19.24
2019-01-20T04:41:16.808Z,19.23
2019-01-20T04:43:45.194Z,19.24
2019-01-20T04:46:13.591Z,19.21
2019-01-20T04:48:41.937Z,19.23
2019-01-20T04:51:10.366Z,19.24
2019-01-20T04:53:39.113Z,19.23
2019-01-20T04:56:07.487Z,19.23
2019-01-20T04:58:35.871Z,19.22
2019-01-20T05:01:04.408Z,19.24
2019-01-20T05:03:33.380Z,19.21
2019-01-20T05:06:01.745Z,19.21
2019-01-20T05:08:30.125Z,19.22
2019-01-20T05:10:58.498Z,19.25
2019-01-20T05:13:26.962Z,19.22
2019-01-20T05:15:55.326Z,19.23
2019-01-20T05:18:23.702Z,19.24
2019-01-20T05:20:52.066Z,19.25
2019-01-20T05:23:20.441Z,19.25
2019-01-20T05:25:48.816Z,19.27
2019-01-20T05:28:17.195Z,19.25
2019-01-20T05:30:45.558Z,19.28
2019-01-20T05:33:13.940Z,19.27
2019-01-20T05:35:42.302Z,19.28
2019-01-20T05:38:10.683Z,19.27
2019-01-20T05:40:39.050Z,19.31
2019-01-20T05:43:07.431Z,19.33
2019-01-20T05:45:35.805Z,19.35
2019-01-20T05:48:04.169Z,19.33
2019-01-20T05:50:32.551Z,19.33
2019-01-20T05:53:00.914Z,19.35
2019-01-20T05:55:29.305Z,19.37
2019-01-20T05:57:57.673Z,19.36
2019-01-20T06:00:28.258Z,19.39
2019-01-20T06:02:56.625Z,19.39
2019-01-20T06:05:25.004Z,19.39
2019-01-20T06:07:53.445Z,19.40
2019-01-20T06:10:21.820Z,19.39
2019-01-20T06:12:54.210Z,19.44
2019-01-20T06:15:21.867Z,19.43
2019-01-20T06:17:50.235Z,19.51
2019-01-20T06:20:18.855Z,19.55
2019-01-20T06:22:47.226Z,19.54
2019-01-20T06:25:15.601Z,19.57
2019-01-20T06:27:43.982Z,19.54
2019-01-20T06:30:15.583Z,19.52
2019-01-20T06:32:43.948Z,19.51
2019-01-20T06:35:12.331Z,19.51
2019-01-20T06:37:40.702Z,19.53
2019-01-20T06:40:09.921Z,19.53
2019-01-20T06:42:38.296Z,19.53
2019-01-20T06:45:09.511Z,19.56
2019-01-20T06:47:37.877Z,19.55
2019-01-20T06:50:14.718Z,19.58
2019-01-20T06:52:43.081Z,19.58
2019-01-20T06:55:12.599Z,19.55
2019-01-20T06:57:41.036Z,19.57
2019-01-20T07:00:24.823Z,19.54
2019-01-20T07:02:53.193Z,19.60
2019-01-20T07:05:21.647Z,19.57
2019-01-20T07:07:50.253Z,19.55
2019-01-20T07:10:19.176Z,19.58
2019-01-20T07:12:47.548Z,19.64
2019-01-20T07:15:20.542Z,19.63
2019-01-20T07:17:48.917Z,19.62
2019-01-20T07:20:17.636Z,19.61
2019-01-20T07:22:46.009Z,19.62
2019-01-20T07:25:14.481Z,19.60
2019-01-20T07:27:42.854Z,19.59
2019-01-20T07:30:13.961Z,19.70
2019-01-20T07:32:43.332Z,19.64
2019-01-20T07:35:12.446Z,19.60
2019-01-20T07:37:40.827Z,19.63
2019-01-20T07:40:12.383Z,19.65
2019-01-20T07:42:40.772Z,19.63
2019-01-20T07:45:11.478Z,19.66
2019-01-20T07:47:39.920Z,19.66
2019-01-20T07:50:11.698Z,19.69
2019-01-20T07:52:40.084Z,19.72
2019-01-20T07:55:09.700Z,19.72
2019-01-20T07:57:38.131Z,19.75
2019-01-20T08:00:23.840Z,19.79
2019-01-20T08:02:52.219Z,19.85
2019-01-20T08:05:21.133Z,19.83
2019-01-20T08:07:49.661Z,19.81
2019-01-20T08:10:20.812Z,19.79
2019-01-20T08:12:49.195Z,19.80
2019-01-20T08:15:18.227Z,19.79
2019-01-20T08:17:46.603Z,19.83
2019-01-20T08:20:20.320Z,19.82
2019-01-20T08:22:48.873Z,19.85
2019-01-20T08:25:18.781Z,19.85
2019-01-20T08:27:47.329Z,19.87
2019-01-20T08:30:20.773Z,19.87
2019-01-20T08:32:49.150Z,19.89
2019-01-20T08:35:17.675Z,19.89
2019-01-20T08:37:46.056Z,19.92
2019-01-20T08:40:16.877Z,19.94
2019-01-20T08:42:45.269Z,19.95
2019-01-20T08:45:22.689Z,19.97
2019-01-20T08:47:53.014Z,19.97
2019-01-20T08:50:21.384Z,20.02
2019-01-20T08:52:49.764Z,20.07
2019-01-20T08:55:18.128Z,20.13
2019-01-20T08:57:46.517Z,20.17
2019-01-20T09:00:16.437Z,20.12
2019-01-20T09:02:44.887Z,20.09
2019-01-20T09:05:13.898Z,20.13
2019-01-20T09:07:42.279Z,20.13
2019-01-20T09:10:13.701Z,20.15
2019-01-20T09:12:42.360Z,20.16
2019-01-20T09:15:10.735Z,20.20
2019-01-20T09:17:39.101Z,20.25
2019-01-20T09:20:11.403Z,20.27
2019-01-20T09:22:39.772Z,20.30
2019-01-20T09:25:10.999Z,20.35
2019-01-20T09:27:39.436Z,20.38
2019-01-20T09:30:14.385Z,20.46
2019-01-20T09:32:42.752Z,20.50
2019-01-20T09:35:11.577Z,20.55
2019-01-20T09:37:39.943Z,20.49
2019-01-20T09:40:11.513Z,20.45
2019-01-20T09:42:39.888Z,20.50
2019-01-20T09:45:13.819Z,20.48
2019-01-20T09:47:42.191Z,20.52
2019-01-20T09:50:10.710Z,20.57
2019-01-20T09:52:39.084Z,20.63
2019-01-20T09:55:10.510Z,20.68
2019-01-20T09:57:38.947Z,20.71
2019-01-20T10:00:12.968Z,20.73
2019-01-20T10:02:41.340Z,20.75
2019-01-20T10:05:10.558Z,20.77
2019-01-20T10:07:38.934Z,20.77
2019-01-20T10:10:10.623Z,20.81
2019-01-20T10:12:38.994Z,20.81
2019-01-20T10:15:10.220Z,20.81
2019-01-20T10:17:38.895Z,20.86
2019-01-20T10:20:13.378Z,20.85
2019-01-20T10:22:41.741Z,20.87
2019-01-20T10:25:15.082Z,20.88
2019-01-20T10:27:40.220Z,20.89
2019-01-20T10:30:14.825Z,20.89
2019-01-20T10:32:47.915Z,20.91
2019-01-20T10:35:13.629Z,20.91
2019-01-20T10:37:42.068Z,20.90
2019-01-20T10:40:10.520Z,20.89
2019-01-20T10:42:39.084Z,20.93
2019-01-20T10:45:09.708Z,20.93
2019-01-20T10:47:39.101Z,20.98
2019-01-20T10:50:13.520Z,20.98
2019-01-20T10:52:41.891Z,20.97
2019-01-20T10:55:10.258Z,20.98
2019-01-20T10:57:39.195Z,20.99
2019-01-20T11:00:19.532Z,21.00
2019-01-20T11:02:47.891Z,21.00
2019-01-20T11:05:16.500Z,21.01
2019-01-20T11:07:44.866Z,20.99
2019-01-20T11:10:13.379Z,21.01
2019-01-20T11:12:41.769Z,21.00
2019-01-20T11:15:12.774Z,21.01
2019-01-20T11:17:41.150Z,21.01
2019-01-20T11:20:12.163Z,21.01
2019-01-20T11:22:40.619Z,21.01
2019-01-20T11:25:12.502Z,21.00
2019-01-20T11:27:41.457Z,20.98
2019-01-20T11:30:12.336Z,20.99
2019-01-20T11:32:42.403Z,20.99
2019-01-20T11:35:14.120Z,20.97
2019-01-20T11:37:42.498Z,20.97
2019-01-20T11:40:12.324Z,20.98
2019-01-20T11:42:40.707Z,20.98
2019-01-20T11:45:21.056Z,20.98
2019-01-20T11:47:49.511Z,20.98
2019-01-20T11:50:18.016Z,21.01
2019-01-20T11:52:46.399Z,21.02
2019-01-20T11:55:23.018Z,21.06
2019-01-20T11:57:51.670Z,21.10
2019-01-20T12:00:23.085Z,21.04
2019-01-20T12:02:51.726Z,21.05
2019-01-20T12:05:20.831Z,21.03
2019-01-20T12:07:49.447Z,21.02
2019-01-20T12:10:17.955Z,21.03
2019-01-20T12:12:54.230Z,21.04
2019-01-20T12:15:22.608Z,21.02
2019-01-20T12:17:50.999Z,21.03
2019-01-20T12:20:19.450Z,21.03
2019-01-20T12:22:47.829Z,21.04
2019-01-20T12:25:20.511Z,21.06
2019-01-20T12:27:48.893Z,21.06
2019-01-20T12:30:22.931Z,21.07
2019-01-20T12:32:51.303Z,21.00
2019-01-20T12:35:19.670Z,21.10
2019-01-20T12:37:48.055Z,21.11
2019-01-20T12:40:25.151Z,21.11
2019-01-20T12:42:53.526Z,21.12
2019-01-20T12:45:21.975Z,21.11
2019-01-20T12:47:50.359Z,21.10
2019-01-20T12:50:19.278Z,21.13
2019-01-20T12:52:47.643Z,21.13
2019-01-20T12:55:16.932Z,21.13
2019-01-20T12:57:45.308Z,21.13
2019-01-20T13:00:18.834Z,21.16
2019-01-20T13:02:47.284Z,21.17
2019-01-20T13:05:15.813Z,21.17
2019-01-20T13:07:44.355Z,21.14
2019-01-20T13:10:15.275Z,21.14
2019-01-20T13:12:43.781Z,21.13
2019-01-20T13:15:14.984Z,21.15
2019-01-20T13:17:43.350Z,21.13
2019-01-20T13:20:27.125Z,21.14
2019-01-20T13:22:55.508Z,21.12
2019-01-20T13:25:26.373Z,21.12
2019-01-20T13:27:54.917Z,21.15
2019-01-20T13:30:28.239Z,21.17
2019-01-20T13:32:56.681Z,21.18
2019-01-20T13:35:25.906Z,21.18
2019-01-20T13:37:57.512Z,21.18
2019-01-20T13:40:29.304Z,21.18
2019-01-20T13:42:57.676Z,21.17
2019-01-20T13:45:26.057Z,21.17
2019-01-20T13:47:54.417Z,21.16
2019-01-20T13:50:22.804Z,21.18
2019-01-20T13:52:51.191Z,21.17
2019-01-20T13:55:19.589Z,21.15
2019-01-20T13:57:47.961Z,21.14
2019-01-20T14:00:21.921Z,21.15
2019-01-20T14:02:50.310Z,21.12
2019-01-20T14:05:18.699Z,21.10
2019-01-20T14:07:47.063Z,21.08
2019-01-20T14:10:18.354Z,21.07
2019-01-20T14:12:46.721Z,21.06
2019-01-20T14:15:16.437Z,21.02
2019-01-20T14:17:45.847Z,21.02
2019-01-20T14:20:17.277Z,21.01
2019-01-20T14:22:45.646Z,21.01
2019-01-20T14:25:16.763Z,21.01
2019-01-20T14:27:45.205Z,21.00
2019-01-20T14:30:28.272Z,20.98
2019-01-20T14:32:56.659Z,20.98
2019-01-20T14:35:25.255Z,20.92
2019-01-20T14:37:53.634Z,20.94
2019-01-20T14:40:22.282Z,20.93
2019-01-20T14:42:51.793Z,20.92
2019-01-20T14:45:20.310Z,20.90
2019-01-20T14:47:48.963Z,20.90
2019-01-20T14:50:20.418Z,20.88
2019-01-20T14:52:48.878Z,20.87
2019-01-20T14:55:17.392Z,20.85
2019-01-20T14:57:45.839Z,20.85
2019-01-20T15:00:26.349Z,20.81
2019-01-20T15:02:54.725Z,20.80
2019-01-20T15:05:23.099Z,20.81
2019-01-20T15:07:51.482Z,20.79
2019-01-20T15:10:19.850Z,20.77
2019-01-20T15:12:48.236Z,20.76
2019-01-20T15:15:19.416Z,20.66
2019-01-20T15:17:47.796Z,20.66
2019-01-20T15:20:16.602Z,20.71
2019-01-20T15:22:48.133Z,20.73
2019-01-20T15:25:18.811Z,20.73
2019-01-20T15:27:47.536Z,20.70
2019-01-20T15:30:18.984Z,20.71
2019-01-20T15:32:48.240Z,20.72
2019-01-20T15:35:16.777Z,20.71
2019-01-20T15:37:45.351Z,20.71
2019-01-20T15:40:22.175Z,20.71
2019-01-20T15:42:50.566Z,20.70
2019-01-20T15:45:20.881Z,20.69
2019-01-20T15:47:50.627Z,20.68
2019-01-20T15:50:24.764Z,20.65
2019-01-20T15:52:53.376Z,20.67
2019-01-20T15:55:21.754Z,20.64
2019-01-20T15:57:50.143Z,20.63
2019-01-20T16:00:26.962Z,20.61
2019-01-20T16:02:55.346Z,20.62
2019-01-20T16:05:25.159Z,20.54
2019-01-20T16:07:53.950Z,20.54
2019-01-20T16:10:22.621Z,20.60
2019-01-20T16:12:51.083Z,20.58
2019-01-20T16:15:31.080Z,20.57
2019-01-20T16:17:59.465Z,20.56
2019-01-20T16:20:28.631Z,20.55
2019-01-20T16:22:57.245Z,20.55
2019-01-20T16:25:28.638Z,20.55
2019-01-20T16:27:57.086Z,20.54
2019-01-20T16:30:28.191Z,20.54
2019-01-20T16:32:56.798Z,20.53
2019-01-20T16:35:26.114Z,20.50
2019-01-20T16:37:55.541Z,20.50
2019-01-20T16:40:25.461Z,20.48
2019-01-20T16:42:53.899Z,20.49
2019-01-20T16:45:32.983Z,20.48
2019-01-20T16:47:57.995Z,20.48
2019-01-20T16:50:26.822Z,20.46
2019-01-20T16:52:55.306Z,20.46
2019-01-20T16:55:24.191Z,20.45
2019-01-20T16:57:52.567Z,20.44
2019-01-20T17:00:23.930Z,20.42
2019-01-20T17:02:52.860Z,20.40
2019-01-20T17:05:21.323Z,20.40
2019-01-20T17:07:49.691Z,20.37
2019-01-20T17:10:20.231Z,20.36
2019-01-20T17:12:48.606Z,20.37
2019-01-20T17:15:19.945Z,20.36
2019-01-20T17:17:48.382Z,20.37
2019-01-20T17:20:17.620Z,20.35
2019-01-20T17:22:47.111Z,20.34
2019-01-20T17:25:16.937Z,20.34
2019-01-20T17:27:45.729Z,20.33
2019-01-20T17:30:25.775Z,20.31
2019-01-20T17:32:54.418Z,20.30
2019-01-20T17:35:22.806Z,20.29
2019-01-20T17:37:51.423Z,20.29
2019-01-20T17:40:27.995Z,20.29
2019-01-20T17:42:56.558Z,20.28
2019-01-20T17:45:27.738Z,20.27
2019-01-20T17:47:56.225Z,20.27
2019-01-20T17:50:33.093Z,20.25
2019-01-20T17:53:01.550Z,20.24
2019-01-20T17:55:30.039Z,20.23
2019-01-20T17:57:58.504Z,20.19
2019-01-20T18:00:30.594Z,20.21
2019-01-20T18:02:59.057Z,20.21
2019-01-20T18:05:27.564Z,20.18
2019-01-20T18:07:55.965Z,20.16
2019-01-20T18:10:24.512Z,20.15
2019-01-20T18:12:53.438Z,20.15
2019-01-20T18:15:24.332Z,20.13
2019-01-20T18:17:52.720Z,20.12
2019-01-20T18:20:29.182Z,20.12
2019-01-20T18:22:57.702Z,20.13
2019-01-20T18:25:26.153Z,20.12
2019-01-20T18:27:54.610Z,20.12
2019-01-20T18:30:28.310Z,20.11
2019-01-20T18:32:56.745Z,20.10
2019-01-20T18:35:26.351Z,20.09
2019-01-20T18:37:54.746Z,20.06
2019-01-20T18:40:24.554Z,20.06
2019-01-20T18:42:52.939Z,20.06
2019-01-20T18:45:23.997Z,20.06
2019-01-20T18:47:52.384Z,20.06
2019-01-20T18:50:26.641Z,20.06
2019-01-20T18:52:55.098Z,20.06
2019-01-20T18:55:23.485Z,20.04
2019-01-20T18:57:51.861Z,20.05
2019-01-20T19:00:35.215Z,20.03
2019-01-20T19:03:03.765Z,20.04
2019-01-20T19:05:32.220Z,20.02
2019-01-20T19:08:00.599Z,20.01
2019-01-20T19:10:28.972Z,20.01
2019-01-20T19:12:57.358Z,20.00
2019-01-20T19:15:25.799Z,20.00
2019-01-20T19:17:54.181Z,20.00
2019-01-20T19:20:24.872Z,19.99
2019-01-20T19:22:55.958Z,19.99
2019-01-20T19:25:24.668Z,19.96
2019-01-20T19:27:53.131Z,19.97
2019-01-20T19:30:30.134Z,19.97
2019-01-20T19:32:58.518Z,19.97
2019-01-20T19:35:28.309Z,19.96
2019-01-20T19:37:56.803Z,19.95
2019-01-20T19:40:25.178Z,19.93
2019-01-20T19:42:53.626Z,19.92
2019-01-20T19:45:22.459Z,19.92
2019-01-20T19:47:50.830Z,19.91
2019-01-20T19:50:19.450Z,19.89
2019-01-20T19:52:47.834Z,19.89
2019-01-20T19:55:21.521Z,19.89
2019-01-20T19:57:50.049Z,19.88
2019-01-20T20:00:26.764Z,19.87
2019-01-20T20:02:55.212Z,19.83
2019-01-20T20:05:23.739Z,19.84
2019-01-20T20:07:53.231Z,19.86
2019-01-20T20:10:24.429Z,19.82
2019-01-20T20:12:54.788Z,19.80
2019-01-20T20:15:25.059Z,19.80
2019-01-20T20:17:53.598Z,19.80
2019-01-20T20:20:22.218Z,19.79
2019-01-20T20:22:50.595Z,19.77
2019-01-20T20:25:21.379Z,19.77
2019-01-20T20:27:49.886Z,19.75
2019-01-20T20:30:24.338Z,19.73
2019-01-20T20:32:52.710Z,19.73
2019-01-20T20:35:21.087Z,19.69
2019-01-20T20:37:49.465Z,19.72
2019-01-20T20:40:19.583Z,19.69
2019-01-20T20:42:48.200Z,19.70
2019-01-20T20:45:21.914Z,19.69
2019-01-20T20:47:50.461Z,19.68
2019-01-20T20:50:19.029Z,19.67
2019-01-20T20:52:47.480Z,19.69
2019-01-20T20:55:15.936Z,19.68
2019-01-20T20:57:44.484Z,19.67
2019-01-20T21:00:30.965Z,19.68
2019-01-20T21:03:01.289Z,19.68
2019-01-20T21:05:29.674Z,19.66
2019-01-20T21:07:58.043Z,19.65
2019-01-20T21:10:26.427Z,19.65
2019-01-20T21:12:54.803Z,19.65
2019-01-20T21:15:23.178Z,19.63
2019-01-20T21:17:51.559Z,19.63
2019-01-20T21:20:22.027Z,19.63
2019-01-20T21:22:50.609Z,19.60
2019-01-20T21:25:18.993Z,19.58
2019-01-20T21:27:47.369Z,19.58
2019-01-20T21:30:18.296Z,19.57
2019-01-20T21:32:46.659Z,19.57
2019-01-20T21:35:15.882Z,19.55
2019-01-20T21:37:44.775Z,19.54
2019-01-20T21:40:15.722Z,19.52
2019-01-20T21:42:44.658Z,19.53
2019-01-20T21:45:14.476Z,19.52
2019-01-20T21:47:42.846Z,19.51
2019-01-20T21:50:14.513Z,19.49
2019-01-20T21:52:42.891Z,19.46
2019-01-20T21:55:11.410Z,19.45
2019-01-20T21:57:39.783Z,19.45
2019-01-20T22:00:11.472Z,19.43
2019-01-20T22:02:39.863Z,19.44
2019-01-20T22:05:09.897Z,19.43
2019-01-20T22:07:38.273Z,19.40
2019-01-20T22:10:20.367Z,19.40
2019-01-20T22:12:48.910Z,19.38
2019-01-20T22:15:17.620Z,19.37
2019-01-20T22:17:46.940Z,19.36
2019-01-20T22:20:20.191Z,19.35
2019-01-20T22:22:48.782Z,19.33
2019-01-20T22:25:17.156Z,19.33
2019-01-20T22:27:45.607Z,19.31
2019-01-20T22:30:24.849Z,19.30
2019-01-20T22:32:53.363Z,19.29
2019-01-20T22:35:21.830Z,19.27
2019-01-20T22:37:50.264Z,19.23
2019-01-20T22:40:19.284Z,19.24
2019-01-20T22:42:47.948Z,19.21
2019-01-20T22:45:43.080Z,19.21
2019-01-20T22:48:11.455Z,19.19
2019-01-20T22:50:39.828Z,19.18
2019-01-20T22:53:08.217Z,19.18
2019-01-20T22:55:36.589Z,19.18
2019-01-20T22:58:04.998Z,19.17
2019-01-20T23:00:43.925Z,19.16
2019-01-20T23:03:12.292Z,19.16
2019-01-20T23:05:40.665Z,19.16
2019-01-20T23:08:09.041Z,19.15
2019-01-20T23:10:37.410Z,19.12
2019-01-20T23:13:05.983Z,19.13
2019-01-20T23:15:34.379Z,19.13
2019-01-20T23:18:02.957Z,19.12
2019-01-20T23:20:31.324Z,19.10
2019-01-20T23:22:59.708Z,19.10
2019-01-20T23:25:28.070Z,19.10
2019-01-20T23:27:56.483Z,19.09
2019-01-20T23:30:24.896Z,19.08
2019-01-20T23:32:53.282Z,19.08
2019-01-20T23:35:21.653Z,19.06
2019-01-20T23:37:50.042Z,19.07
2019-01-20T23:40:18.583Z,19.06
2019-01-20T23:42:46.967Z,19.05
2019-01-20T23:45:15.605Z,19.02
2019-01-20T23:47:43.995Z,19.03
2019-01-20T23:50:14.190Z,19.02
2019-01-20T23:52:42.656Z,19.01
2019-01-20T23:55:14.235Z,18.99
2019-01-20T23:57:42.696Z,19.00
